Bernice Lind — WDC8364 — position and weather

sailwx.info

Track history (hours):
 
Tides and Currents Weather Stations Pressure Air Temp Water Temp Dewpoint Dewpoint Depression Visibility Wind Speed Wind Dir Waves Ship Positions

Bernice Lind

Owner: Riverview Equipment Company, LLC, Petaluma, CA. More information available from US FCC via Universal Licensing System and Coast Guard Vessel Documentation Center.

Last reported at 2017-Jul-13 18:30 UTC. Time now 2017-Jul-25 08:44 UTC.
Position N 38°04' W 122°15'.
Warning: this ship's position is 11 days out of date.

Length 20 m; draft 2.4 m.

Type: Towing. MMSI: 367085890.

Date/timePositionNaut miles runAvg speedWind from/ knotsBaromVisibWave heightAir tempDewpointWater temp
2017-Jul-13 18:30N 38°04' W 122°15'3 6.0
2017-Jul-13 17:57N 38°03' W 122°19'3 6.3
2017-Jul-13 17:29N 38°01' W 122°22'3 7.2
2017-Jul-13 17:00N 37°59' W 122°25'3 6.3
2017-Jul-13 16:30N 37°56' W 122°26'3 6.5
2017-Jul-13 16:00N 37°54' W 122°22'2 4.6
2017-Jul-13 15:30N 37°55' W 122°25'4 8.5
2017-Jul-13 15:00N 37°59' W 122°25'5 9.4
2017-Jul-13 14:30N 38°02' W 122°20'5 9.2
2017-Jul-13 14:00N 38°04' W 122°15'  
Track history (hours):
 
Tides and Currents Weather Stations Pressure Air Temp Water Temp Dewpoint Dewpoint Depression Visibility Wind Speed Wind Dir Waves Ship Positions

Bernice Lind

Owner: Riverview Equipment Company, LLC, Petaluma, CA. More information available from US FCC via Universal Licensing System and Coast Guard Vessel Documentation Center.

Last reported at 2017-Jul-13 18:30 UTC. Time now 2017-Jul-25 08:44 UTC.
Position N 38°04' W 122°15'.
Warning: this ship's position is 11 days out of date.

Length 20 m; draft 2.4 m.

Type: Towing. MMSI: 367085890.

Date/timePositionNaut miles runAvg speedWind from/ knotsBaromVisibWave heightAir tempDewpointWater temp
2017-Jul-13 18:30N 38°04' W 122°15'3 6.0
2017-Jul-13 17:57N 38°03' W 122°19'3 6.3
2017-Jul-13 17:29N 38°01' W 122°22'3 7.2
2017-Jul-13 17:00N 37°59' W 122°25'3 6.3
2017-Jul-13 16:30N 37°56' W 122°26'3 6.5
2017-Jul-13 16:00N 37°54' W 122°22'2 4.6
2017-Jul-13 15:30N 37°55' W 122°25'4 8.5
2017-Jul-13 15:00N 37°59' W 122°25'5 9.4
2017-Jul-13 14:30N 38°02' W 122°20'5 9.2
2017-Jul-13 14:00N 38°04' W 122°15'  

Dump ship's entire track history